Pagrindinis puslapis
METAR-TAF:

METAR-TAF

Oro uostai :

Karakasas, Venesuela

platuma: 10-36N, ilguma: 066-59W, Aukštis: 43 m

Dabartinis oras

Ataskaita buvo paskelbta 16 minutes, ne 10:00 UTC
Vėjas 5 kt iš Šiaurės/Šiaurės Rytų
Temperatūra 27°C
Drėgmė 74%
Slėgis 1010 hPa
Matomumas 10 km arba daugiau
Mažai debesys ne aukštis 1600 ft

METAR: SVMI 121000Z 02005KT 9999 FEW016 27/22 Q1010

Laikas: 06:16 (10:16 UTC)

Prognozė

Ataskaita buvo paskelbta 18 valandos ir 16 minutes, ne 16:00 UTC
Prognozė galioja nuo 10 metu 18 UTC su 11 metu 18 UTC
Vėjas 6 kt iš Rytų
Matomumas 10 km arba daugiau
Mažai debesys ne aukštis 1600 ft
Tapsmas
nuo 10 metu 18 UTC su 10 metu 23 UTC
Vėjas 8 kt iš Rytų/Šiaurės Rytų
Išsisklaidę debesys ne aukštis 1600 ft

TAF: SVMI 101600Z 1018/1118 09006KT 9999 FEW016 TX32/20Z TN23/08Z BECMG 1018/1023 07008KT SCT016

Orai ataskaitas ir orų prognozės (METAR, TAF).

turimą stotys yra geltonos ir raudonos taškus žemėlapyje.

Perkelti pele per norėdami pamatyti stoties vardą.

Tada spustelėkite, norėdami matyti oro stebėjimo ir prognozės.

Norėdami pakeisti žemėlapį: spustelėkite ant žalios mygtukų su juodo kryžiaus žemyn,; žalią mygtuką su brūkšneliu, jei norite nutolinti; arba žalių rodyklių gretimoms žemėlapius.


METAR-TAF: